createdAt,value
2019-04-12T00:00:50.513Z,8.97
2019-04-12T00:03:21.323Z,6.03
2019-04-12T00:05:51.715Z,3.70
2019-04-12T00:08:22.352Z,10.00
2019-04-12T00:10:53.651Z,8.47
2019-04-12T00:13:24.906Z,7.50
2019-04-12T00:15:55.272Z,4.53
2019-04-12T00:18:25.417Z,5.07
2019-04-12T00:20:55.891Z,6.23
2019-04-12T00:23:26.025Z,7.03
2019-04-12T00:25:56.159Z,5.73
2019-04-12T00:28:27.252Z,6.37
2019-04-12T00:30:57.379Z,5.27
2019-04-12T00:33:27.785Z,3.30
2019-04-12T00:35:58.338Z,4.37
2019-04-12T00:38:29.014Z,7.40
2019-04-12T00:41:01.922Z,2.60
2019-04-12T00:43:31.299Z,1.70
2019-04-12T00:46:06.079Z,1.40
2019-04-12T00:48:35.566Z,2.53
2019-04-12T00:51:05.954Z,3.87
2019-04-12T00:53:36.270Z,4.43
2019-04-12T00:56:06.560Z,1.90
2019-04-12T00:58:36.651Z,3.50
2019-04-12T01:01:41.499Z,3.50
2019-04-12T01:04:28.402Z,2.67
2019-04-12T01:06:58.957Z,2.10
2019-04-12T01:09:29.426Z,1.83
2019-04-12T01:11:59.542Z,9.83
2019-04-12T01:14:30.028Z,9.20
2019-04-12T01:17:00.625Z,4.53
2019-04-12T01:19:33.427Z,3.00
2019-04-12T01:22:08.126Z,2.97
2019-04-12T01:24:40.823Z,3.10
2019-04-12T01:27:10.364Z,1.93
2019-04-12T01:29:40.438Z,2.70
2019-04-12T01:32:10.736Z,3.10
2019-04-12T01:34:40.967Z,3.07
2019-04-12T01:37:11.112Z,3.60
2019-04-12T01:39:41.260Z,3.27
2019-04-12T01:42:11.710Z,3.57
2019-04-12T01:44:42.462Z,3.77
2019-04-12T01:47:13.628Z,3.97
2019-04-12T01:49:43.827Z,3.63
2019-04-12T01:52:14.869Z,3.77
2019-04-12T01:54:45.547Z,4.20
2019-04-12T01:57:15.679Z,3.70
2019-04-12T01:59:46.202Z,3.77
2019-04-12T02:02:16.285Z,3.80
2019-04-12T02:04:46.710Z,3.70
2019-04-12T02:07:17.302Z,4.00
2019-04-12T02:09:47.831Z,4.17
2019-04-12T02:12:18.207Z,3.90
2019-04-12T02:14:48.546Z,4.40
2019-04-12T02:17:18.707Z,4.80
2019-04-12T02:19:48.812Z,5.03
2019-04-12T02:22:19.082Z,4.27
2019-04-12T02:24:49.442Z,4.00
2019-04-12T02:27:19.679Z,4.47
2019-04-12T02:29:49.854Z,4.67
2019-04-12T02:32:28.663Z,4.63
2019-04-12T02:35:00.357Z,5.03
2019-04-12T02:37:30.627Z,4.67
2019-04-12T02:40:00.937Z,5.33
2019-04-12T02:42:32.587Z,4.87
2019-04-12T02:45:04.920Z,4.63
2019-04-12T02:47:41.640Z,5.23
2019-04-12T02:50:30.896Z,5.20
2019-04-12T02:53:34.094Z,5.00
2019-04-12T02:56:24.097Z,4.97
2019-04-12T02:58:58.659Z,4.40
2019-04-12T03:01:29.184Z,5.37
2019-04-12T03:04:00.136Z,5.20
2019-04-12T03:06:30.472Z,4.70
2019-04-12T03:09:01.427Z,4.80
2019-04-12T03:11:33.330Z,5.20
2019-04-12T03:14:04.399Z,4.20
2019-04-12T03:16:36.588Z,4.67
2019-04-12T03:19:07.963Z,5.07
2019-04-12T03:21:38.518Z,4.87
2019-04-12T03:24:08.866Z,5.67
2019-04-12T03:26:40.101Z,5.70
2019-04-12T03:29:11.484Z,5.07
2019-04-12T03:31:42.296Z,4.90
2019-04-12T03:34:12.840Z,4.83
2019-04-12T03:36:43.854Z,5.03
2019-04-12T03:39:15.064Z,4.13
2019-04-12T03:41:48.637Z,5.60
2019-04-12T03:44:19.149Z,5.40
2019-04-12T03:46:49.803Z,5.90
2019-04-12T03:49:21.107Z,6.07
2019-04-12T03:51:52.507Z,6.60
2019-04-12T03:54:22.930Z,6.63
2019-04-12T03:56:53.435Z,6.80
2019-04-12T03:59:24.005Z,6.50
2019-04-12T04:01:58.889Z,6.00
2019-04-12T04:04:29.484Z,6.10
2019-04-12T04:07:00.323Z,7.30
2019-04-12T04:09:30.690Z,6.57
2019-04-12T04:12:03.579Z,7.03
2019-04-12T04:14:34.357Z,7.57
2019-04-12T04:17:21.138Z,6.60
2019-04-12T04:20:02.687Z,6.40
2019-04-12T04:22:33.855Z,7.20
2019-04-12T04:25:05.087Z,7.00
2019-04-12T04:28:05.711Z,7.10
2019-04-12T04:30:41.374Z,7.17
2019-04-12T04:33:12.319Z,6.97
2019-04-12T04:35:42.772Z,7.20
2019-04-12T04:38:20.731Z,8.00
2019-04-12T04:40:55.744Z,8.80
2019-04-12T04:43:26.151Z,9.50
2019-04-12T04:45:56.500Z,8.23
2019-04-12T04:48:27.167Z,13.47
2019-04-12T04:50:57.779Z,10.23
2019-04-12T04:53:28.015Z,13.13
2019-04-12T04:55:59.380Z,9.90
2019-04-12T04:58:30.123Z,10.70
2019-04-12T05:01:00.351Z,9.63
2019-04-12T05:03:30.943Z,11.83
2019-04-12T05:06:01.432Z,13.57
2019-04-12T05:08:31.847Z,10.70
2019-04-12T05:11:02.636Z,10.80
2019-04-12T05:13:33.047Z,9.90
2019-04-12T05:16:03.926Z,9.67
2019-04-12T05:18:35.350Z,9.77
2019-04-12T05:21:06.552Z,11.60
2019-04-12T05:23:37.688Z,11.10
2019-04-12T05:26:08.480Z,12.87
2019-04-12T05:28:39.414Z,13.57
2019-04-12T05:31:10.115Z,12.00
2019-04-12T05:33:40.566Z,11.60
2019-04-12T05:36:11.131Z,11.00
2019-04-12T05:39:02.320Z,11.47
2019-04-12T05:41:32.573Z,13.13
2019-04-12T05:44:05.362Z,11.00
2019-04-12T05:46:46.189Z,11.80
2019-04-12T05:49:42.751Z,11.60
2019-04-12T05:52:48.583Z,11.70
2019-04-12T05:55:19.607Z,12.60
2019-04-12T05:57:59.599Z,12.10
2019-04-12T06:00:38.128Z,13.27
2019-04-12T06:03:12.188Z,11.77
2019-04-12T06:05:42.510Z,12.23
2019-04-12T06:08:13.192Z,11.00
2019-04-12T06:10:45.295Z,11.30
2019-04-12T06:13:17.231Z,12.40
2019-04-12T06:15:48.303Z,9.80
2019-04-12T06:18:18.620Z,10.93
2019-04-12T06:20:59.781Z,10.83
2019-04-12T06:23:30.377Z,11.30
2019-04-12T06:26:09.041Z,12.33
2019-04-12T06:28:39.521Z,11.30
2019-04-12T06:31:11.734Z,10.70
2019-04-12T06:33:45.681Z,10.27
2019-04-12T15:20:33.679Z,11.90
2019-04-12T15:23:04.560Z,11.10
2019-04-12T15:25:34.651Z,12.37
2019-04-12T15:28:04.637Z,13.13
2019-04-12T15:30:35.033Z,13.10
2019-04-12T15:33:05.727Z,11.73
2019-04-12T15:35:35.930Z,12.17
2019-04-12T15:38:06.073Z,12.87
2019-04-12T15:40:36.408Z,12.27
2019-04-12T15:43:06.869Z,12.10
2019-04-12T15:45:37.285Z,11.63
2019-04-12T15:48:09.012Z,11.50
2019-04-12T15:50:39.086Z,11.60
2019-04-12T15:53:09.170Z,11.87
2019-04-12T15:55:39.987Z,11.73
2019-04-12T15:58:09.989Z,11.40
2019-04-12T16:00:51.057Z,11.77
2019-04-12T16:03:19.428Z,11.10
2019-04-12T16:05:49.500Z,12.50
2019-04-12T16:08:20.975Z,12.47
2019-04-12T16:11:01.984Z,12.20
2019-04-12T16:14:01.513Z,11.77
2019-04-12T16:17:14.931Z,10.80
2019-04-12T16:19:46.578Z,11.73
2019-04-12T16:22:18.243Z,12.00
2019-04-12T16:24:48.581Z,12.40
2019-04-12T16:27:18.599Z,12.43
2019-04-12T16:30:09.568Z,12.27
2019-04-12T16:32:52.521Z,11.87
2019-04-12T16:35:41.509Z,12.33
2019-04-12T16:38:17.651Z,12.40
2019-04-12T16:40:47.910Z,12.30
2019-04-12T16:43:17.943Z,13.33
2019-04-12T16:45:47.899Z,12.60
2019-04-12T16:48:18.140Z,13.20
2019-04-12T16:50:48.120Z,11.90
2019-04-12T16:53:18.128Z,13.13
2019-04-12T16:55:48.184Z,15.00
2019-04-12T16:58:18.271Z,14.10
2019-04-12T17:00:48.544Z,14.70
2019-04-12T17:03:19.715Z,15.80
2019-04-12T17:05:50.077Z,14.27
2019-04-12T17:08:20.629Z,15.73
2019-04-12T17:10:50.657Z,15.57
2019-04-12T17:13:21.032Z,15.13
2019-04-12T17:15:51.197Z,14.37
2019-04-12T17:18:21.395Z,16.07
2019-04-12T17:20:55.233Z,15.67
2019-04-12T17:23:24.356Z,13.63
2019-04-12T17:25:54.921Z,14.50
2019-04-12T17:28:26.408Z,14.50
2019-04-12T17:30:56.956Z,15.67
2019-04-12T17:33:27.256Z,15.80
2019-04-12T17:35:58.689Z,15.50
2019-04-12T17:38:29.132Z,15.40
2019-04-12T17:40:59.163Z,15.93
2019-04-12T17:43:29.363Z,15.67
2019-04-12T17:46:00.299Z,15.23
2019-04-12T17:48:58.426Z,15.03
2019-04-12T17:51:39.789Z,14.73
2019-04-12T17:54:18.186Z,15.30
2019-04-12T17:56:48.260Z,14.93
2019-04-12T17:59:18.252Z,14.17
2019-04-12T18:02:01.990Z,15.47
2019-04-12T18:04:30.148Z,14.93
2019-04-12T18:07:00.202Z,15.43
2019-04-12T18:09:30.292Z,14.07
2019-04-12T18:12:00.346Z,12.90
2019-04-12T18:14:31.294Z,14.50
2019-04-12T18:17:01.356Z,13.43
2019-04-12T18:19:31.327Z,14.30
2019-04-12T18:22:01.809Z,14.23
2019-04-12T18:24:32.883Z,14.33
2019-04-12T18:27:04.878Z,13.60
2019-04-12T18:29:34.920Z,12.63
2019-04-12T18:32:14.410Z,12.50
2019-04-12T18:34:38.152Z,15.80
2019-04-12T18:37:08.164Z,13.07
2019-04-12T18:39:38.620Z,15.40
2019-04-12T18:42:09.399Z,13.97
2019-04-12T18:44:39.982Z,13.60
2019-04-12T18:47:10.491Z,11.30
2019-04-12T18:49:40.505Z,11.47
2019-04-12T18:52:10.704Z,18.60
2019-04-12T18:54:40.630Z,13.83
2019-04-12T18:57:10.736Z,12.33
2019-04-12T18:59:41.373Z,12.60
2019-04-12T19:02:11.937Z,16.13
2019-04-12T19:04:55.464Z,13.30
2019-04-12T19:07:25.794Z,13.50
2019-04-12T19:10:23.881Z,13.40
2019-04-12T19:14:10.711Z,17.83
2019-04-12T19:19:54.585Z,15.73
2019-04-12T19:22:30.924Z,19.87
2019-04-12T19:25:01.718Z,17.10
2019-04-12T19:27:31.700Z,13.63
2019-04-12T19:30:01.992Z,10.87
2019-04-12T19:32:48.499Z,14.23
2019-04-12T19:35:27.840Z,12.80
2019-04-12T19:38:16.697Z,13.40
2019-04-12T19:40:47.415Z,16.03
2019-04-12T19:43:17.512Z,15.13
2019-04-12T19:45:47.562Z,14.80
2019-04-12T19:48:18.807Z,15.70
2019-04-12T19:50:49.164Z,17.40
2019-04-12T19:53:19.593Z,14.07
2019-04-12T19:55:49.828Z,14.80
2019-04-12T19:58:20.377Z,14.53
2019-04-12T20:00:50.912Z,13.00
2019-04-12T20:03:21.115Z,12.87
2019-04-12T20:05:51.331Z,13.20
2019-04-12T20:08:22.306Z,11.30
2019-04-12T20:10:53.557Z,13.97
2019-04-12T20:13:23.783Z,13.03
2019-04-12T20:15:54.112Z,18.83
2019-04-12T20:18:24.380Z,15.73
2019-04-12T20:20:54.544Z,15.80
2019-04-12T20:23:24.689Z,15.30
2019-04-12T20:25:54.756Z,17.50
2019-04-12T20:28:26.311Z,14.20
2019-04-12T20:30:56.945Z,15.43
2019-04-12T20:33:27.127Z,13.87
2019-04-12T20:35:58.109Z,13.00
2019-04-12T20:38:28.516Z,14.10
2019-04-12T20:41:02.751Z,13.13
2019-04-12T20:43:33.632Z,12.63
2019-04-12T20:46:05.157Z,13.10
2019-04-12T20:48:35.165Z,13.73
2019-04-12T20:51:06.135Z,13.27
2019-04-12T20:53:36.139Z,12.33
2019-04-12T20:56:15.545Z,12.93
2019-04-12T20:58:39.430Z,12.97
2019-04-12T21:01:11.006Z,13.53
2019-04-12T21:03:43.560Z,12.90
2019-04-12T21:06:13.886Z,11.37
2019-04-12T21:08:44.533Z,11.90
2019-04-12T21:11:32.447Z,11.60
2019-04-12T21:14:30.852Z,14.60
2019-04-12T21:20:59.553Z,13.77
2019-04-12T21:23:34.773Z,14.00
2019-04-12T21:26:16.067Z,14.17
2019-04-12T21:28:47.513Z,16.77
2019-04-12T21:31:17.612Z,13.33
2019-04-12T21:33:49.180Z,12.57
2019-04-12T21:36:19.299Z,10.50
2019-04-12T21:38:50.540Z,11.00
2019-04-12T21:41:21.535Z,11.57
2019-04-12T21:43:52.162Z,11.80
2019-04-12T21:46:23.101Z,15.47
2019-04-12T21:48:53.288Z,15.30
2019-04-12T21:51:23.603Z,10.90
2019-04-12T21:53:53.935Z,11.70
2019-04-12T21:56:24.181Z,10.87
2019-04-12T21:58:54.172Z,10.67
2019-04-12T22:01:26.413Z,11.80
2019-04-12T22:03:58.549Z,14.50
2019-04-12T22:06:30.192Z,13.93
2019-04-12T22:09:02.150Z,13.00
2019-04-12T22:11:32.184Z,11.07
2019-04-12T22:14:14.203Z,12.00
2019-04-12T22:16:36.593Z,13.60
2019-04-12T22:19:06.664Z,13.33
2019-04-12T22:21:37.959Z,12.47
2019-04-12T22:24:08.680Z,12.37
2019-04-12T22:26:40.190Z,14.80
2019-04-12T22:29:11.229Z,15.00
2019-04-12T22:31:42.256Z,11.67
2019-04-12T22:34:12.532Z,13.30
2019-04-12T22:36:42.900Z,12.97
2019-04-12T22:39:12.898Z,11.87
2019-04-12T22:41:44.071Z,11.80
2019-04-12T22:44:14.885Z,11.43
2019-04-12T22:46:45.500Z,10.73
2019-04-12T22:49:15.541Z,11.67
2019-04-12T22:51:45.945Z,11.93
2019-04-12T22:54:17.156Z,11.47
2019-04-12T22:56:47.228Z,10.87
2019-04-12T22:59:17.331Z,11.10
2019-04-12T23:01:47.473Z,11.17
2019-04-12T23:04:18.210Z,13.07
2019-04-12T23:06:48.512Z,10.97
2019-04-12T23:09:18.532Z,11.67
2019-04-12T23:11:49.052Z,12.60
2019-04-12T23:14:20.622Z,11.73
2019-04-12T23:16:50.924Z,12.30
2019-04-12T23:19:21.324Z,12.67
2019-04-12T23:21:51.334Z,11.00
2019-04-12T23:24:22.389Z,11.90
2019-04-12T23:26:52.459Z,13.33
2019-04-12T23:29:22.968Z,13.20
2019-04-12T23:31:58.598Z,13.50
2019-04-12T23:34:39.889Z,13.90
2019-04-12T23:37:10.340Z,11.90
2019-04-12T23:39:40.950Z,14.03
2019-04-12T23:42:11.336Z,14.50
2019-04-12T23:44:41.384Z,14.30
2019-04-12T23:47:11.737Z,12.90
2019-04-12T23:49:41.880Z,12.70
2019-04-12T23:52:12.949Z,13.37
2019-04-12T23:54:42.988Z,12.60
2019-04-12T23:57:13.964Z,12.10
2019-04-12T23:59:44.194Z,12.37
